createdAt,value
2022-10-15T00:01:33.503Z,8.23
2022-10-15T00:06:34.906Z,10.13
2022-10-15T00:09:04.239Z,14.48
2022-10-15T00:14:00.895Z,13.80
2022-10-15T00:16:29.750Z,17.10
2022-10-15T00:18:59.612Z,12.85
2022-10-15T00:21:28.471Z,10.43
2022-10-15T00:23:56.846Z,11.15
2022-10-15T00:26:27.355Z,12.93
2022-10-15T00:29:02.896Z,9.70
2022-10-15T00:31:31.986Z,10.10
2022-10-15T00:34:02.812Z,16.05
2022-10-15T00:36:34.763Z,20.00
2022-10-15T00:39:05.780Z,10.23
2022-10-15T00:41:42.578Z,13.20
2022-10-15T00:44:25.936Z,18.55
2022-10-15T00:47:16.739Z,16.45
2022-10-15T00:50:12.860Z,8.95
2022-10-15T00:52:59.373Z,13.90
2022-10-15T00:55:36.547Z,9.88
2022-10-15T00:58:28.700Z,11.02
2022-10-15T01:00:57.972Z,12.13
2022-10-15T01:03:25.482Z,16.77
2022-10-15T01:05:53.885Z,20.10
2022-10-15T01:08:21.630Z,16.73
2022-10-15T01:11:22.543Z,11.60
2022-10-15T01:14:09.031Z,18.85
2022-10-15T01:16:55.456Z,18.67
2022-10-15T01:19:47.080Z,16.50
2022-10-15T01:22:47.794Z,16.08
2022-10-15T01:25:45.631Z,17.63
2022-10-15T01:28:39.984Z,14.80
2022-10-15T01:31:56.570Z,17.42
2022-10-15T01:34:55.422Z,14.32
2022-10-15T01:38:02.914Z,18.83
2022-10-15T01:41:29.602Z,21.15
2022-10-15T01:44:28.492Z,23.08
2022-10-15T01:47:21.766Z,30.15
2022-10-15T01:49:52.825Z,17.05
2022-10-15T01:55:01.279Z,23.58
2022-10-15T01:57:32.571Z,20.63
2022-10-15T02:00:02.908Z,14.82
2022-10-15T02:02:40.192Z,16.42
2022-10-15T02:05:19.742Z,18.40
2022-10-15T02:08:01.378Z,21.90
2022-10-15T02:11:14.398Z,19.52
2022-10-15T02:13:54.916Z,16.17
2022-10-15T02:16:38.277Z,15.85
2022-10-15T02:19:47.249Z,18.60
2022-10-15T02:24:57.450Z,14.95
2022-10-15T02:27:28.294Z,18.05
2022-10-15T02:29:57.703Z,23.08
2022-10-15T02:32:27.421Z,17.02
2022-10-15T02:34:56.807Z,20.80
2022-10-15T02:37:28.458Z,12.20
2022-10-15T02:39:56.020Z,18.35
2022-10-15T02:42:25.822Z,21.30
2022-10-15T02:44:54.101Z,17.75
2022-10-15T02:47:22.017Z,24.48
2022-10-15T02:49:49.803Z,14.43
2022-10-15T02:52:18.223Z,19.08
2022-10-15T02:54:46.636Z,15.50
2022-10-15T02:57:14.426Z,12.27
2022-10-15T03:02:15.268Z,17.80
2022-10-15T03:04:47.110Z,20.65
2022-10-15T03:07:16.282Z,17.75
2022-10-15T03:09:43.791Z,24.05
2022-10-15T03:12:11.530Z,14.63
2022-10-15T03:14:39.026Z,19.00
2022-10-15T03:17:06.970Z,16.00
2022-10-15T03:19:34.734Z,17.48
2022-10-15T03:22:20.938Z,19.90
2022-10-15T03:24:53.277Z,21.13
2022-10-15T03:27:26.589Z,21.23
2022-10-15T03:30:13.244Z,21.77
2022-10-15T03:35:11.338Z,21.53
2022-10-15T03:37:39.214Z,30.13
2022-10-15T03:40:13.535Z,18.95
2022-10-15T03:42:43.704Z,24.80
2022-10-15T03:45:12.236Z,15.57
2022-10-15T03:47:39.738Z,27.33
2022-10-15T03:50:09.634Z,24.13
2022-10-15T03:52:37.909Z,21.67
2022-10-15T03:55:06.928Z,23.70
2022-10-15T03:57:35.408Z,23.75
2022-10-15T04:00:07.966Z,22.17
2022-10-15T04:02:41.939Z,28.60
2022-10-15T04:05:20.487Z,17.55
2022-10-15T04:07:53.708Z,21.17
2022-10-15T04:10:22.936Z,21.42
2022-10-15T04:12:50.473Z,20.08
2022-10-15T04:15:19.204Z,17.05
2022-10-15T04:17:55.857Z,23.80
2022-10-15T04:20:25.435Z,23.10
2022-10-15T04:22:53.049Z,18.92
2022-10-15T04:25:20.729Z,21.67
2022-10-15T04:27:48.470Z,22.00
2022-10-15T04:30:18.673Z,22.40
2022-10-15T04:32:53.983Z,22.27
2022-10-15T04:35:22.214Z,20.70
2022-10-15T04:38:04.493Z,22.25
2022-10-15T04:41:02.990Z,17.77
2022-10-15T04:43:43.463Z,18.05
2022-10-15T04:46:13.754Z,14.93
2022-10-15T04:48:43.245Z,20.13
2022-10-15T04:51:20.558Z,25.95
2022-10-15T04:54:10.605Z,16.75
2022-10-15T04:56:48.053Z,20.02
2022-10-15T04:59:15.784Z,16.52
2022-10-15T05:02:03.604Z,11.50
2022-10-15T05:04:31.337Z,20.08
2022-10-15T05:06:58.891Z,22.45
2022-10-15T05:09:26.647Z,17.25
2022-10-15T05:11:55.941Z,17.80
2022-10-15T05:17:05.505Z,12.88
2022-10-15T05:19:38.944Z,20.17
2022-10-15T05:22:08.943Z,12.15
2022-10-15T05:24:43.462Z,15.50
2022-10-15T05:27:33.995Z,8.50
2022-10-15T05:30:04.881Z,13.75
2022-10-15T05:32:45.660Z,12.07
2022-10-15T05:35:17.544Z,14.35
2022-10-15T05:37:54.155Z,23.05
2022-10-15T05:40:22.166Z,13.25
2022-10-15T05:43:05.125Z,18.48
2022-10-15T05:45:32.649Z,15.88
2022-10-15T05:48:05.390Z,23.75
2022-10-15T05:50:33.480Z,22.63
2022-10-15T05:53:03.079Z,18.75
2022-10-15T05:55:45.929Z,19.40
2022-10-15T05:58:13.460Z,30.25
2022-10-15T06:00:41.103Z,23.88
2022-10-15T06:03:14.660Z,14.85
2022-10-15T06:05:42.259Z,19.40
2022-10-15T06:08:09.985Z,14.75
2022-10-15T06:10:37.923Z,16.33
2022-10-15T06:13:06.103Z,17.60
2022-10-15T06:15:34.258Z,16.67
2022-10-15T06:18:02.373Z,12.90
2022-10-15T06:20:29.891Z,10.48
2022-10-15T06:23:01.970Z,12.57
2022-10-15T06:25:32.130Z,10.75
2022-10-15T06:28:06.261Z,10.80
2022-10-15T06:30:42.965Z,15.02
2022-10-15T06:35:40.591Z,10.20
2022-10-15T06:38:08.125Z,12.65
2022-10-15T06:40:37.089Z,18.65
2022-10-15T06:43:10.614Z,11.57
2022-10-15T06:45:42.045Z,16.38
2022-10-15T06:48:18.574Z,11.63
2022-10-15T06:50:46.503Z,12.32
2022-10-15T06:53:13.924Z,15.77
2022-10-15T06:55:41.422Z,10.90
2022-10-15T06:58:12.569Z,14.52
2022-10-15T07:00:40.055Z,13.50
2022-10-15T07:03:08.409Z,9.25
2022-10-15T07:05:36.238Z,17.23
2022-10-15T07:08:03.933Z,14.00
2022-10-15T07:10:31.554Z,12.65
2022-10-15T07:13:03.157Z,12.70
2022-10-15T07:15:30.618Z,14.80
2022-10-15T07:18:01.426Z,15.60
2022-10-15T07:20:30.808Z,11.77
2022-10-15T07:23:01.741Z,12.15
2022-10-15T07:25:35.149Z,8.35
2022-10-15T07:28:02.692Z,9.57
2022-10-15T07:30:30.199Z,11.45
2022-10-15T07:32:59.753Z,10.65
2022-10-15T07:35:27.943Z,9.77
2022-10-15T07:37:55.560Z,14.70
2022-10-15T07:40:23.319Z,26.35
2022-10-15T07:42:58.770Z,8.52
2022-10-15T07:45:32.040Z,10.27
2022-10-15T07:47:59.496Z,9.18
2022-10-15T07:50:29.313Z,9.98
2022-10-15T07:53:01.465Z,11.57
2022-10-15T07:55:28.925Z,13.07
2022-10-15T07:57:59.938Z,10.93
2022-10-15T08:00:27.811Z,16.02
2022-10-15T08:02:55.303Z,10.45
2022-10-15T08:05:22.765Z,9.07
2022-10-15T08:07:50.594Z,10.55
2022-10-15T08:10:18.868Z,13.02
2022-10-15T08:12:46.725Z,12.57
2022-10-15T08:15:14.283Z,12.13
2022-10-15T08:17:42.358Z,11.88
2022-10-15T08:20:11.079Z,14.05
2022-10-15T08:22:38.872Z,12.10
2022-10-15T08:25:06.674Z,9.85
2022-10-15T08:27:34.376Z,8.20
2022-10-15T08:30:05.351Z,12.35
2022-10-15T08:32:33.155Z,10.20
2022-10-15T08:35:00.602Z,10.13
2022-10-15T08:37:31.934Z,9.70
2022-10-15T08:39:59.970Z,8.30
2022-10-15T08:42:42.128Z,15.18
2022-10-15T08:45:23.381Z,9.52
2022-10-15T08:48:04.025Z,10.02
2022-10-15T08:50:49.233Z,9.02
2022-10-15T08:53:25.662Z,16.65
2022-10-15T08:56:06.198Z,6.70
2022-10-15T08:59:05.285Z,11.90
2022-10-15T09:02:03.882Z,10.23
2022-10-15T09:04:41.755Z,9.70
2022-10-15T09:07:30.628Z,10.63
2022-10-15T09:10:32.267Z,15.57
2022-10-15T09:13:16.332Z,10.38
2022-10-15T09:16:00.360Z,8.15
2022-10-15T09:18:35.223Z,8.77
2022-10-15T09:21:06.062Z,7.00
2022-10-15T09:23:34.808Z,10.63
2022-10-15T09:26:23.780Z,14.17
2022-10-15T09:29:27.266Z,8.55
2022-10-15T09:32:31.930Z,9.80
2022-10-15T09:35:18.932Z,13.43
2022-10-15T09:38:24.646Z,11.18
2022-10-15T09:41:16.691Z,13.18
2022-10-15T09:43:51.646Z,14.35
2022-10-15T09:46:20.643Z,8.90
2022-10-15T09:49:09.618Z,8.60
2022-10-15T09:51:44.529Z,7.32
2022-10-15T09:54:25.967Z,9.50
2022-10-15T09:56:57.189Z,6.70
2022-10-15T09:59:25.714Z,5.93
2022-10-15T10:02:18.756Z,11.32
2022-10-15T10:04:46.520Z,6.35
2022-10-15T10:07:38.526Z,12.35
2022-10-15T10:10:28.593Z,10.10
2022-10-15T10:12:57.249Z,10.27
2022-10-15T10:15:36.783Z,8.07
2022-10-15T10:18:06.789Z,7.72
2022-10-15T10:20:35.114Z,12.60
2022-10-15T10:23:23.483Z,10.77
2022-10-15T10:25:51.293Z,12.13
2022-10-15T10:28:57.099Z,7.90
2022-10-15T10:31:40.093Z,7.15
2022-10-15T10:34:16.874Z,9.07
2022-10-15T10:36:51.427Z,13.38
2022-10-15T10:39:32.537Z,5.68
2022-10-15T10:42:22.871Z,3.78
2022-10-15T10:44:52.588Z,5.00
2022-10-15T10:47:26.171Z,4.43
2022-10-15T10:50:00.708Z,11.43
2022-10-15T10:52:35.001Z,6.60
2022-10-15T10:55:05.165Z,4.45
2022-10-15T10:57:56.070Z,5.55
2022-10-15T11:00:33.670Z,6.90
2022-10-15T11:03:01.898Z,3.80
2022-10-15T11:05:33.837Z,6.57
2022-10-15T11:08:24.739Z,5.32
2022-10-15T11:11:38.541Z,6.25
2022-10-15T11:14:39.947Z,8.02
2022-10-15T11:17:32.327Z,3.75
2022-10-15T11:20:32.004Z,8.18
2022-10-15T11:23:48.509Z,7.68
2022-10-15T11:26:52.001Z,6.50
2022-10-15T11:30:25.550Z,9.40
2022-10-15T11:33:08.212Z,16.38
2022-10-15T11:36:20.389Z,11.98
2022-10-15T11:39:19.884Z,4.55
2022-10-15T11:42:41.099Z,5.25
2022-10-15T11:45:36.134Z,4.78
2022-10-15T11:48:36.043Z,4.15
2022-10-15T11:51:32.432Z,5.63
2022-10-15T11:54:32.597Z,4.53
2022-10-15T11:57:04.268Z,8.50
2022-10-15T11:59:50.434Z,9.65
2022-10-15T12:02:38.073Z,10.07
2022-10-15T12:05:10.426Z,6.70
2022-10-15T12:07:45.733Z,8.68
2022-10-15T12:10:42.511Z,9.73
2022-10-15T12:13:35.728Z,17.60
2022-10-15T12:16:19.446Z,5.28
2022-10-15T12:19:04.054Z,5.53
2022-10-15T12:21:44.785Z,7.00
2022-10-15T12:24:47.339Z,7.10
2022-10-15T12:27:18.786Z,4.47
2022-10-15T12:29:49.728Z,10.00
2022-10-15T12:32:48.682Z,4.32
2022-10-15T12:35:16.220Z,6.90
2022-10-15T12:37:48.050Z,7.07
2022-10-15T12:40:29.588Z,4.50
2022-10-15T12:42:57.260Z,4.15
2022-10-15T12:46:10.829Z,8.52
2022-10-15T12:48:45.595Z,9.25
2022-10-15T12:51:24.814Z,11.48
2022-10-15T12:53:58.925Z,7.28
2022-10-15T12:56:46.922Z,9.63
2022-10-15T12:59:55.663Z,7.75
2022-10-15T13:02:43.793Z,14.75
2022-10-15T13:05:33.683Z,6.13
2022-10-15T13:08:05.040Z,4.72
2022-10-15T13:10:40.330Z,5.07
2022-10-15T13:13:17.613Z,5.53
2022-10-15T13:16:00.677Z,15.88
2022-10-15T13:18:31.561Z,7.90
2022-10-15T13:23:34.836Z,6.25
2022-10-15T13:26:30.349Z,13.38
2022-10-15T13:28:58.376Z,10.50
2022-10-15T13:31:35.219Z,5.20
2022-10-15T13:34:17.412Z,8.15
2022-10-15T13:36:55.160Z,6.55
2022-10-15T13:39:38.963Z,18.80
2022-10-15T13:42:21.061Z,8.80
2022-10-15T13:45:01.801Z,4.72
2022-10-15T13:47:35.907Z,6.03
2022-10-15T13:50:29.531Z,10.77
2022-10-15T13:53:33.581Z,10.98
2022-10-15T13:56:18.474Z,4.45
2022-10-15T13:58:47.769Z,5.25
2022-10-15T14:01:22.054Z,4.95
2022-10-15T14:04:01.569Z,5.55
2022-10-15T14:06:38.299Z,4.28
2022-10-15T14:09:18.969Z,3.67
2022-10-15T14:11:46.707Z,4.22
2022-10-15T14:14:41.636Z,7.27
2022-10-15T14:17:17.599Z,6.00
2022-10-15T14:20:25.309Z,7.10
2022-10-15T14:22:49.693Z,8.40
2022-10-15T14:25:27.770Z,6.22
2022-10-15T14:27:55.565Z,6.00
2022-10-15T14:30:35.861Z,9.73
2022-10-15T14:33:03.987Z,5.90
2022-10-15T14:35:37.287Z,7.10
2022-10-15T14:38:16.436Z,6.53
2022-10-15T14:41:09.250Z,6.82
2022-10-15T14:43:38.255Z,5.50
2022-10-15T14:46:15.669Z,9.60
2022-10-15T14:48:44.619Z,6.38
2022-10-15T14:51:25.257Z,8.82
2022-10-15T14:53:53.816Z,7.75
2022-10-15T14:58:58.963Z,5.35
2022-10-15T15:01:27.757Z,5.20
2022-10-15T15:03:57.154Z,7.28
2022-10-15T15:06:25.177Z,8.55
2022-10-15T15:08:52.890Z,8.30
2022-10-15T15:11:25.001Z,3.08
2022-10-15T15:13:53.201Z,5.38
2022-10-15T15:16:20.987Z,11.45
2022-10-15T15:18:48.994Z,6.07
2022-10-15T15:21:22.248Z,5.63
2022-10-15T15:23:50.907Z,3.95
2022-10-15T15:26:19.060Z,10.98
2022-10-15T15:28:46.902Z,7.47
2022-10-15T15:31:18.141Z,7.50
2022-10-15T15:33:46.036Z,5.55
2022-10-15T15:36:20.998Z,19.15
2022-10-15T15:38:52.105Z,7.25
2022-10-15T15:41:22.722Z,17.00
2022-10-15T15:43:50.747Z,11.30
2022-10-15T15:46:18.956Z,4.03
2022-10-15T15:48:46.502Z,11.80
2022-10-15T15:51:26.553Z,8.45
2022-10-15T15:53:54.526Z,7.50
2022-10-15T15:56:22.809Z,6.78
2022-10-15T15:58:51.148Z,10.40
2022-10-15T16:01:20.468Z,12.95
2022-10-15T16:03:48.140Z,7.22
2022-10-15T16:06:16.148Z,6.05
2022-10-15T16:08:43.696Z,9.48
2022-10-15T16:11:11.519Z,6.88
2022-10-15T16:13:40.916Z,9.18
2022-10-15T16:16:09.494Z,13.13
2022-10-15T16:18:37.839Z,10.90
2022-10-15T16:21:05.861Z,8.70
2022-10-15T16:23:33.395Z,6.22
2022-10-15T16:26:01.159Z,7.97
2022-10-15T16:28:28.676Z,7.50
2022-10-15T16:31:21.135Z,8.52
2022-10-15T16:33:49.274Z,14.82
2022-10-15T16:36:18.262Z,7.05
2022-10-15T16:38:47.230Z,10.35
2022-10-15T16:41:18.741Z,10.18
2022-10-15T16:43:48.349Z,12.98
2022-10-15T16:46:18.512Z,10.93
2022-10-15T16:48:51.683Z,15.23
2022-10-15T16:51:20.174Z,9.00
2022-10-15T16:53:49.143Z,6.47
2022-10-15T16:56:23.857Z,5.82
2022-10-15T16:58:51.621Z,7.30
2022-10-15T17:01:23.502Z,5.30
2022-10-15T17:03:51.447Z,6.80
2022-10-15T17:06:28.880Z,7.57
2022-10-15T17:09:05.077Z,6.25
2022-10-15T17:11:40.411Z,5.53
2022-10-15T17:14:11.513Z,5.95
2022-10-15T17:16:49.056Z,7.40
2022-10-15T17:19:21.407Z,6.68
2022-10-15T17:21:49.942Z,12.80
2022-10-15T17:24:19.316Z,6.25
2022-10-15T17:26:48.061Z,7.25
2022-10-15T17:29:20.779Z,12.07
2022-10-15T17:31:51.348Z,5.43
2022-10-15T17:34:19.291Z,7.50
2022-10-15T17:36:48.998Z,9.63
2022-10-15T17:39:20.293Z,6.40
2022-10-15T17:41:49.206Z,11.82
2022-10-15T17:44:17.019Z,8.10
2022-10-15T17:46:44.808Z,8.18
2022-10-15T17:49:15.191Z,7.50
2022-10-15T17:51:44.689Z,11.95
2022-10-15T17:54:12.230Z,15.45
2022-10-15T17:56:40.228Z,6.63
2022-10-15T17:59:11.230Z,6.70
2022-10-15T18:01:59.523Z,8.10
2022-10-15T18:04:31.086Z,9.10
2022-10-15T18:06:59.569Z,9.68
2022-10-15T18:09:28.044Z,13.82
2022-10-15T18:11:57.587Z,23.60
2022-10-15T18:14:30.330Z,72.80
2022-10-15T18:16:58.462Z,19.10
2022-10-15T18:19:26.782Z,11.02
2022-10-15T18:21:55.742Z,10.40
2022-10-15T18:24:24.045Z,15.17
2022-10-15T18:26:52.841Z,10.00
2022-10-15T18:29:22.457Z,12.87
2022-10-15T18:31:54.759Z,11.00
2022-10-15T18:34:25.057Z,11.68
2022-10-15T18:36:52.741Z,5.38
2022-10-15T18:39:23.130Z,11.68
2022-10-15T18:41:50.951Z,12.85
2022-10-15T18:44:21.628Z,13.75
2022-10-15T18:46:51.813Z,8.43
2022-10-15T18:49:20.893Z,13.20
2022-10-15T18:51:53.047Z,7.05
2022-10-15T18:54:22.051Z,15.25
2022-10-15T18:56:50.869Z,18.10
2022-10-15T18:59:19.992Z,19.13
2022-10-15T19:01:50.903Z,14.18
2022-10-15T19:06:51.787Z,6.65
2022-10-15T19:09:26.584Z,10.00
2022-10-15T19:11:56.150Z,18.80
2022-10-15T19:14:26.136Z,7.70
2022-10-15T19:16:54.405Z,13.25
2022-10-15T19:19:24.257Z,8.50
2022-10-15T19:21:52.741Z,12.18
2022-10-15T19:24:22.467Z,13.80
2022-10-15T19:26:53.666Z,5.32
2022-10-15T19:29:21.263Z,5.00
2022-10-15T19:31:53.304Z,12.02
2022-10-15T19:34:22.739Z,8.85
2022-10-15T19:36:50.878Z,6.95
2022-10-15T19:39:22.337Z,9.43
2022-10-15T19:41:52.646Z,10.65
2022-10-15T19:44:25.720Z,8.60
2022-10-15T19:46:56.197Z,7.45
2022-10-15T19:49:25.228Z,9.50
2022-10-15T19:51:53.344Z,7.07
2022-10-15T19:54:21.039Z,6.40
2022-10-15T19:56:48.910Z,6.05
2022-10-15T19:59:17.017Z,8.10
2022-10-15T20:01:44.891Z,7.40
2022-10-15T20:04:12.466Z,6.68
2022-10-15T20:06:40.405Z,8.70
2022-10-15T20:09:08.956Z,6.55
2022-10-15T20:11:38.000Z,9.50
2022-10-15T20:14:07.025Z,5.47
2022-10-15T20:16:35.028Z,3.25
2022-10-15T20:19:05.652Z,5.22
2022-10-15T20:21:33.704Z,14.40
2022-10-15T20:24:05.227Z,9.35
2022-10-15T20:26:33.249Z,8.57
2022-10-15T20:29:01.082Z,6.95
2022-10-15T20:31:33.178Z,8.18
2022-10-15T20:34:02.521Z,7.25
2022-10-15T20:36:30.638Z,5.88
2022-10-15T20:39:00.913Z,6.78
2022-10-15T20:41:29.070Z,4.63
2022-10-15T20:43:58.405Z,5.80
2022-10-15T20:46:35.504Z,8.73
2022-10-15T20:51:45.201Z,7.15
2022-10-15T20:54:14.745Z,6.55
2022-10-15T20:56:42.934Z,7.28
2022-10-15T20:59:10.565Z,6.63
2022-10-15T21:01:39.046Z,10.88
2022-10-15T21:04:07.089Z,12.02
2022-10-15T21:06:34.883Z,9.77
2022-10-15T21:09:02.724Z,7.22
2022-10-15T21:11:30.506Z,5.00
2022-10-15T21:14:01.319Z,6.28
2022-10-15T21:16:29.235Z,9.05
2022-10-15T21:18:56.781Z,5.70
2022-10-15T21:21:24.621Z,10.93
2022-10-15T21:23:52.961Z,7.68
2022-10-15T21:26:21.834Z,5.85
2022-10-15T21:28:58.242Z,10.83
2022-10-15T21:31:27.395Z,10.95
2022-10-15T21:33:55.745Z,6.93
2022-10-15T21:36:27.667Z,9.80
2022-10-15T21:38:59.168Z,8.52
2022-10-15T21:41:30.747Z,6.88
2022-10-15T21:43:59.957Z,6.53
2022-10-15T21:46:28.409Z,11.10
2022-10-15T21:48:55.857Z,8.00
2022-10-15T21:51:28.530Z,10.43
2022-10-15T21:53:58.083Z,5.80
2022-10-15T21:56:27.179Z,9.57
2022-10-15T21:58:55.834Z,7.22
2022-10-15T22:01:26.991Z,5.07
2022-10-15T22:04:04.774Z,7.15
2022-10-15T22:06:33.404Z,5.10
2022-10-15T22:09:02.071Z,3.80
2022-10-15T22:11:33.659Z,4.35
2022-10-15T22:14:05.010Z,4.20
2022-10-15T22:16:36.276Z,9.68
2022-10-15T22:19:05.188Z,10.75
2022-10-15T22:21:36.552Z,6.90
2022-10-15T22:24:08.619Z,5.18
2022-10-15T22:26:41.105Z,4.05
2022-10-15T22:29:16.100Z,5.53
2022-10-15T22:31:44.272Z,3.03
2022-10-15T22:34:12.029Z,6.88
2022-10-15T22:36:39.990Z,4.15
2022-10-15T22:39:10.219Z,3.65
2022-10-15T22:41:40.894Z,3.38
2022-10-15T22:44:12.769Z,3.65
2022-10-15T22:46:41.303Z,4.10
2022-10-15T22:49:10.541Z,5.55
2022-10-15T22:54:05.713Z,4.40
2022-10-15T22:56:33.987Z,6.85
2022-10-15T22:59:01.640Z,5.22
2022-10-15T23:01:32.432Z,3.47
2022-10-15T23:04:05.787Z,7.82
2022-10-15T23:06:36.294Z,3.58
2022-10-15T23:09:05.977Z,6.35
2022-10-15T23:11:40.347Z,5.57
2022-10-15T23:14:12.388Z,5.57
2022-10-15T23:16:44.759Z,7.72
2022-10-15T23:19:19.671Z,7.70
2022-10-15T23:21:52.324Z,4.55
2022-10-15T23:24:22.989Z,7.85
2022-10-15T23:26:51.482Z,2.90
2022-10-15T23:29:23.342Z,5.55
2022-10-15T23:31:52.798Z,2.42
2022-10-15T23:34:23.816Z,2.78
2022-10-15T23:36:52.456Z,4.05
2022-10-15T23:39:25.104Z,2.10
2022-10-15T23:41:53.512Z,6.30
2022-10-15T23:44:21.651Z,5.05
2022-10-15T23:46:49.429Z,7.13
2022-10-15T23:49:17.134Z,6.28
2022-10-15T23:51:44.899Z,4.05
2022-10-15T23:54:16.364Z,2.65
2022-10-15T23:56:46.295Z,6.22
2022-10-15T23:59:14.745Z,7.47
